Time;durP1;ratioP1;P1;durP2;ratioP2;P2;SDS_P1;SDS_P2;PMS_P1;PMS_P2;Temp;Humidity;BMP_temperature;BMP_pressure;BME280_temperature;BME280_humidity;BME280_pressure;Samples;Min_cycle;Max_cycle;Signal;HPM_P1;HPM_P2
2022/04/28 00:00:00;;;;;;;;;;;;;;;;;;5072972;28;19928;-78
2022/04/28 00:02:28;;;;;;;;;;;8.40;99.90;;;;;;5092786;28;19924;-77
2022/04/28 00:04:55;;;;;;;;;;;;;;;;;;5440485;22;20259;-77
2022/04/28 00:07:24;;;;;;;;;;;8.40;99.90;;;;;;5055668;28;19920;-77
2022/04/28 00:09:54;;;;;;;;;;;8.40;99.90;;;;;;5042721;28;19990;-78
2022/04/28 00:12:21;;;;;;;;;;;;;;;;;;5048493;28;20399;-82
2022/04/28 00:14:48;;;;;;;;;;;;;;;;;;5044552;28;19924;-77
2022/04/28 00:17:16;;;;;;;;;;;;;;;;;;5055999;28;19936;-79
2022/04/28 00:19:44;;;;;;;;;;;8.20;99.90;;;;;;5043147;28;19974;-80
2022/04/28 00:22:13;;;;;;;;;;;;;;;;;;5060906;28;19929;-81
2022/04/28 00:24:41;;;;;;;;;;;8.10;99.90;;;;;;5036827;28;19932;-80
2022/04/28 00:27:08;;;;;;;;;;;8.10;99.90;;;;;;5058033;28;19974;-80
2022/04/28 00:29:35;;;;;;;;;;;8.10;99.90;;;;;;5049851;28;19980;-82
2022/04/28 00:32:02;;;;;;;;;;;;;;;;;;5065419;28;19935;-82
2022/04/28 00:34:35;;;;;;;;;;;8.10;99.90;;;;;;5060217;28;19935;-80
2022/04/28 00:37:02;;;;;;;;;;;8.00;99.90;;;;;;5055974;28;19982;-82
2022/04/28 00:39:29;;;;;;;;;;;8.00;99.90;;;;;;5053104;28;19920;-80
2022/04/28 00:41:57;;;;;;;;;;;8.00;99.90;;;;;;5036574;28;19983;-79
2022/04/28 00:44:25;;;;;;;;;;;;;;;;;;5050993;28;20023;-81
2022/04/28 00:46:52;;;;;;;;;;;7.90;99.90;;;;;;5050527;28;19968;-78
2022/04/28 00:52:10;;;;;;;;;;;7.80;99.90;;;;;;5034666;28;19925;-79
2022/04/28 00:54:38;;;;;;;;;;;;;;;;;;5029939;28;20294;-79
2022/04/28 00:57:05;;;;;;;;;;;;;;;;;;5055215;28;19986;-82
2022/04/28 00:59:34;;;;;;;;;;;7.70;99.90;;;;;;5039076;28;19935;-79
2022/04/28 01:02:04;;;;;;;;;;;7.70;99.90;;;;;;5053842;28;20175;-80
2022/04/28 01:04:31;;;;;;;;;;;;;;;;;;5045382;28;19932;-81
2022/04/28 01:06:58;;;;;;;;;;;7.70;99.90;;;;;;5038121;28;19936;-80
2022/04/28 01:09:25;;;;;;;;;;;7.60;99.90;;;;;;5035787;28;20458;-82
2022/04/28 01:11:53;;;;;;;;;;;;;;;;;;5050709;28;19951;-80
2022/04/28 01:14:27;;;;;;;;;;;7.50;99.90;;;;;;5052911;28;19920;-80
2022/04/28 01:17:04;;;;;;;;;;;7.50;99.90;;;;;;5055195;28;19924;-79
2022/04/28 01:19:32;;;;;;;;;;;7.50;99.90;;;;;;5055720;28;19983;-79
2022/04/28 01:22:00;;;;;;;;;;;7.40;99.90;;;;;;5047954;28;20059;-79
2022/04/28 01:24:28;;;;;;;;;;;7.40;99.90;;;;;;5030975;28;19929;-79
2022/04/28 01:26:57;;;;;;;;;;;7.40;99.90;;;;;;5051106;28;19929;-82
2022/04/28 01:29:24;;;;;;;;;;;7.30;99.90;;;;;;5054661;28;19958;-79
2022/04/28 01:31:51;;;;;;;;;;;7.30;99.90;;;;;;5051284;28;20195;-80
2022/04/28 01:34:20;;;;;;;;;;;7.20;99.90;;;;;;5045293;28;19931;-79
2022/04/28 01:36:47;;;;;;;;;;;7.20;99.90;;;;;;5028805;28;19925;-79
2022/04/28 01:39:15;;;;;;;;;;;7.20;99.90;;;;;;5030158;28;19925;-79
2022/04/28 01:41:44;;;;;;;;;;;7.10;99.90;;;;;;5056134;28;21281;-80
2022/04/28 01:44:11;;;;;;;;;;;7.00;99.90;;;;;;5046117;28;19932;-78
2022/04/28 01:46:38;;;;;;;;;;;7.00;99.90;;;;;;5029613;28;20066;-79
2022/04/28 01:49:17;;;;;;;;;;;7.00;99.90;;;;;;5042978;28;19929;-81
2022/04/28 01:55:01;;;;;;;;;;;7.00;99.90;;;;;;5051423;28;19928;-79
2022/04/28 01:57:57;;;;;;;;;;;6.90;99.90;;;;;;5033567;28;19916;-80
2022/04/28 02:00:31;;;;;;;;;;;6.90;99.90;;;;;;5041236;28;19920;-80
2022/04/28 02:03:07;;;;;;;;;;;6.90;99.90;;;;;;5027731;28;19921;-79
2022/04/28 02:05:35;;;;;;;;;;;6.90;99.90;;;;;;5032750;28;20032;-79
2022/04/28 02:08:05;;;;;;;;;;;6.80;99.90;;;;;;5028593;28;19925;-81
2022/04/28 02:10:33;;;;;;;;;;;6.90;99.90;;;;;;5061225;28;19931;-79
2022/04/28 02:13:02;;;;;;;;;;;6.90;99.90;;;;;;5054415;28;19928;-81
2022/04/28 02:15:36;;;;;;;;;;;6.90;99.90;;;;;;5063698;28;19967;-81
2022/04/28 02:18:21;;;;;;;;;;;6.90;99.90;;;;;;5052713;28;20029;-81
2022/04/28 02:20:48;;;;;;;;;;;6.90;99.90;;;;;;5032239;28;19972;-79
2022/04/28 02:23:18;;;;;;;;;;;6.90;99.90;;;;;;5049059;28;19924;-80
2022/04/28 02:25:48;;;;;;;;;;;6.90;99.90;;;;;;5052700;28;20322;-79
2022/04/28 02:28:17;;;;;;;;;;;6.90;99.90;;;;;;5033365;28;19925;-79
2022/04/28 02:30:44;;;;;;;;;;;6.90;99.90;;;;;;5032426;28;19935;-80
2022/04/28 02:33:11;;;;;;;;;;;6.80;99.90;;;;;;5046385;28;20404;-81
2022/04/28 02:35:58;;;;;;;;;;;6.80;99.90;;;;;;5039841;28;19975;-81
2022/04/28 02:38:25;;;;;;;;;;;3.40;99.90;;;;;;5043768;28;19975;-83
2022/04/28 02:40:59;;;;;;;;;;;6.90;99.90;;;;;;5054997;28;19929;-82
2022/04/28 02:46:00;;;;;;;;;;;6.90;99.90;;;;;;5010649;28;19964;-78
2022/04/28 02:48:37;;;;;;;;;;;6.90;99.90;;;;;;4997026;28;19972;-78
2022/04/28 02:51:04;;;;;;;;;;;6.80;99.90;;;;;;5015682;28;19932;-78
2022/04/28 02:53:34;;;;;;;;;;;6.80;99.90;;;;;;5016879;28;20194;-78
2022/04/28 02:56:03;;;;;;;;;;;6.80;99.90;;;;;;5016140;28;19929;-78
2022/04/28 02:58:29;;;;;;;;;;;6.80;99.90;;;;;;5017016;28;19928;-78
2022/04/28 03:00:56;;;;;;;;;;;6.90;99.90;;;;;;5038751;22;19936;-78
2022/04/28 03:03:24;;;;;;;;;;;6.90;99.90;;;;;;5053201;28;20189;-77
2022/04/28 03:11:23;;;;;;;;;;;6.90;99.90;;;;;;5043988;28;19955;-78
2022/04/28 03:13:50;;;;;;;;;;;6.90;99.90;;;;;;5015507;28;19932;-79
2022/04/28 03:16:17;;;;;;;;;;;;;;;;;;5030655;28;19936;-78
2022/04/28 03:19:04;;;;;;;;;;;9.30;99.90;;;;;;5033087;28;19928;-78
2022/04/28 03:21:32;;;;;;;;;;;6.70;99.90;;;;;;5034442;28;19925;-78
2022/04/28 03:23:59;;;;;;;;;;;6.80;99.90;;;;;;5050434;28;19927;-79
2022/04/28 03:26:28;;;;;;;;;;;6.90;99.90;;;;;;5045693;28;19932;-78
2022/04/28 03:28:56;;;;;;;;;;;6.90;99.90;;;;;;5026843;28;19932;-79
2022/04/28 03:31:23;;;;;;;;;;;6.90;99.90;;;;;;5025475;28;20024;-78
2022/04/28 03:34:24;;;;;;;;;;;6.80;99.90;;;;;;5030404;28;19925;-78
2022/04/28 03:36:51;;;;;;;;;;;6.70;99.90;;;;;;5036031;28;19931;-79
2022/04/28 03:39:22;;;;;;;;;;;6.80;99.90;;;;;;5030383;28;19929;-79
2022/04/28 03:41:49;;;;;;;;;;;;;;;;;;5046103;28;20282;-80
2022/04/28 03:44:17;;;;;;;;;;;6.60;99.90;;;;;;5039648;28;19974;-78
2022/04/28 03:46:45;;;;;;;;;;;;;;;;;;5043267;28;20396;-78
2022/04/28 03:49:12;;;;;;;;;;;;;;;;;;5049819;28;19983;-78
2022/04/28 03:51:39;;;;;;;;;;;;;;;;;;5049893;28;19924;-77
2022/04/28 03:54:06;;;;;;;;;;;6.60;99.90;;;;;;5047552;28;19925;-77
2022/04/28 03:56:35;;;;;;;;;;;;;;;;;;5026783;28;19978;-77
2022/04/28 03:59:09;;;;;;;;;;;;;;;;;;5039126;28;19925;-77
2022/04/28 04:01:57;;;;;;;;;;;;;;;;;;5023445;28;19931;-77
2022/04/28 04:04:27;;;;;;;;;;;6.40;99.90;;;;;;5032972;28;19955;-77
2022/04/28 04:07:07;;;;;;;;;;;6.40;99.90;;;;;;5026164;28;19960;-77
2022/04/28 04:09:34;;;;;;;;;;;6.40;99.90;;;;;;5045538;28;20015;-77
2022/04/28 04:12:01;;;;;;;;;;;;;;;;;;5023446;28;19927;-77
2022/04/28 04:14:41;;;;;;;;;;;;;;;;;;5025787;28;19920;-77
2022/04/28 04:17:08;;;;;;;;;;;;;;;;;;5046315;28;20273;-77
2022/04/28 04:19:37;;;;;;;;;;;6.30;99.90;;;;;;5040667;28;19967;-78
2022/04/28 04:22:05;;;;;;;;;;;6.30;99.90;;;;;;5043660;28;20019;-76
2022/04/28 04:24:33;;;;;;;;;;;;;;;;;;5039690;28;20385;-76
2022/04/28 04:27:00;;;;;;;;;;;;;;;;;;5043465;28;20003;-78
2022/04/28 04:29:47;;;;;;;;;;;6.30;99.90;;;;;;5047335;28;19925;-79
2022/04/28 04:32:17;;;;;;;;;;;6.40;99.90;;;;;;5039526;28;20490;-78
2022/04/28 04:34:50;;;;;;;;;;;;;;;;;;5047721;28;20314;-78
2022/04/28 04:37:21;;;;;;;;;;;;;;;;;;5030507;28;19936;-78
2022/04/28 04:39:49;;;;;;;;;;;6.40;99.90;;;;;;5041055;28;19924;-78
2022/04/28 04:42:16;;;;;;;;;;;6.40;99.90;;;;;;5048601;28;19924;-78
2022/04/28 04:44:43;;;;;;;;;;;6.40;99.90;;;;;;5048516;28;19933;-78
2022/04/28 04:47:14;;;;;;;;;;;;;;;;;;5050979;28;19929;-78
2022/04/28 04:49:55;;;;;;;;;;;6.50;99.90;;;;;;5045018;28;20011;-82
2022/04/28 04:52:35;;;;;;;;;;;;;;;;;;5033235;28;19924;-78
2022/04/28 04:55:07;;;;;;;;;;;6.60;99.90;;;;;;5036495;28;20250;-77
2022/04/28 04:57:39;;;;;;;;;;;6.60;99.90;;;;;;5049930;28;19931;-79
2022/04/28 05:00:06;;;;;;;;;;;;;;;;;;5041098;28;19925;-78
2022/04/28 05:02:46;;;;;;;;;;;6.70;99.90;;;;;;5043713;28;20479;-78
2022/04/28 05:05:33;;;;;;;;;;;6.80;99.90;;;;;;5047303;28;20372;-79
2022/04/28 05:08:14;;;;;;;;;;;;;;;;;;5044303;28;19932;-78
2022/04/28 05:10:54;;;;;;;;;;;7.00;99.90;;;;;;5018362;28;19925;-79
2022/04/28 05:13:21;;;;;;;;;;;7.00;99.90;;;;;;5048415;28;19968;-77
2022/04/28 05:15:53;;;;;;;;;;;7.10;99.90;;;;;;5050665;28;19928;-78
2022/04/28 05:18:31;;;;;;;;;;;7.30;99.90;;;;;;5049963;28;19928;-78
2022/04/28 05:21:30;;;;;;;;;;;7.40;99.90;;;;;;5031464;28;19920;-78
2022/04/28 05:24:16;;;;;;;;;;;7.60;99.90;;;;;;5043131;28;20008;-78
2022/04/28 05:27:07;;;;;;;;;;;7.80;99.90;;;;;;5048606;28;19936;-78
2022/04/28 05:29:52;;;;;;;;;;;8.00;99.90;;;;;;5051635;28;20039;-78
2022/04/28 05:32:21;;;;;;;;;;;8.20;99.90;;;;;;5053379;28;19930;-77
2022/04/28 05:34:52;;;;;;;;;;;8.20;99.90;;;;;;5050822;28;19921;-79
2022/04/28 05:37:21;;;;;;;;;;;9.20;99.90;;;;;;5059689;28;19935;-80
2022/04/28 05:39:47;;;;;;;;;;;11.20;99.90;;;;;;5072424;28;19925;-79
2022/04/28 05:42:16;;;;;;;;;;;11.30;99.90;;;;;;5048643;28;20452;-78
2022/04/28 05:47:27;;;;;;;;;;;13.30;99.90;;;;;;5048668;28;20015;-78
2022/04/28 05:49:55;;;;;;;;;;;15.20;99.90;;;;;;5042892;28;20032;-77
2022/04/28 05:52:22;;;;;;;;;;;15.30;99.90;;;;;;5045209;28;20279;-78
2022/04/28 05:54:51;;;;;;;;;;;13.20;99.90;;;;;;5029088;28;20377;-79
2022/04/28 05:57:20;;;;;;;;;;;16.80;99.90;;;;;;5047271;28;19959;-79
2022/04/28 05:59:48;;;;;;;;;;;17.70;99.90;;;;;;5046671;28;19921;-78
2022/04/28 06:02:34;;;;;;;;;;;17.80;99.90;;;;;;5046538;28;20298;-78
2022/04/28 06:05:03;;;;;;;;;;;18.30;99.90;;;;;;5046703;28;19952;-78
2022/04/28 06:07:30;;;;;;;;;;;18.40;99.90;;;;;;5046182;28;19909;-81
2022/04/28 06:09:59;;;;;;;;;;;18.60;99.90;;;;;;5053904;28;19931;-78
2022/04/28 06:12:28;;;;;;;;;;;19.00;99.90;;;;;;5057818;28;19920;-80
2022/04/28 06:15:15;;;;;;;;;;;19.70;99.90;;;;;;5029837;28;20343;-81
2022/04/28 06:18:02;;;;;;;;;;;20.60;99.90;;;;;;5040011;28;19947;-81
2022/04/28 06:20:30;;;;;;;;;;;21.20;99.90;;;;;;5041415;28;20006;-82
2022/04/28 06:22:56;;;;;;;;;;;21.60;99.90;;;;;;5054781;28;19927;-81
2022/04/28 06:25:24;;;;;;;;;;;21.60;99.90;;;;;;5036234;28;20305;-80
2022/04/28 06:27:52;;;;;;;;;;;21.60;99.90;;;;;;5042191;28;19964;-81
2022/04/28 06:30:19;;;;;;;;;;;21.60;99.90;;;;;;5042252;28;19924;-80
2022/04/28 06:32:50;;;;;;;;;;;21.80;99.90;;;;;;5035752;28;20495;-80
2022/04/28 06:35:39;;;;;;;;;;;22.00;99.90;;;;;;5038954;28;19941;-82
2022/04/28 06:38:05;;;;;;;;;;;22.10;98.20;;;;;;5040882;28;19924;-80
2022/04/28 06:40:32;;;;;;;;;;;22.30;99.40;;;;;;5036093;28;19963;-82
2022/04/28 06:43:00;;;;;;;;;;;22.80;98.60;;;;;;5053243;28;19947;-82
2022/04/28 06:48:48;;;;;;;;;;;23.40;96.60;;;;;;5049843;28;20007;-80
2022/04/28 06:51:33;;;;;;;;;;;23.10;95.70;;;;;;5047379;28;19950;-80
2022/04/28 06:54:09;;;;;;;;;;;23.00;94.10;;;;;;5054178;28;19921;-81
2022/04/28 06:56:36;;;;;;;;;;;23.20;93.90;;;;;;5055737;28;20000;-80
2022/04/28 06:59:09;;;;;;;;;;;23.50;93.80;;;;;;5035748;28;20389;-81
2022/04/28 07:01:41;;;;;;;;;;;23.90;93.50;;;;;;5044967;28;20294;-80
2022/04/28 07:04:08;;;;;;;;;;;24.00;92.40;;;;;;5038246;28;19933;-81
2022/04/28 07:06:35;;;;;;;;;;;24.10;93.30;;;;;;5047221;28;19931;-80
2022/04/28 07:09:04;;;;;;;;;;;24.70;92.60;;;;;;5044913;28;19935;-80
2022/04/28 07:11:30;;;;;;;;;;;25.00;91.90;;;;;;5054158;28;19925;-81
2022/04/28 07:14:16;;;;;;;;;;;24.80;91.50;;;;;;5063705;28;19932;-82
2022/04/28 07:17:03;;;;;;;;;;;25.20;92.20;;;;;;5059319;28;20038;-80
2022/04/28 07:19:38;;;;;;;;;;;25.10;87.90;;;;;;5044750;28;20413;-80
2022/04/28 07:22:05;;;;;;;;;;;25.10;88.30;;;;;;5032528;28;19971;-81
2022/04/28 07:24:32;;;;;;;;;;;24.70;85.10;;;;;;5032588;28;20375;-81
2022/04/28 07:27:01;;;;;;;;;;;24.40;86.00;;;;;;5050543;28;19924;-81
2022/04/28 07:29:30;;;;;;;;;;;24.00;86.20;;;;;;5049737;28;19924;-81
2022/04/28 07:32:07;;;;;;;;;;;23.50;86.70;;;;;;5026510;28;20011;-81
2022/04/28 07:34:52;;;;;;;;;;;23.40;87.10;;;;;;5061271;28;20034;-81
2022/04/28 07:37:38;;;;;;;;;;;23.50;87.90;;;;;;5065660;28;19927;-83
2022/04/28 07:40:25;;;;;;;;;;;24.00;88.00;;;;;;5056433;28;19940;-85
2022/04/28 07:42:56;;;;;;;;;;;23.90;86.40;;;;;;5047523;28;19909;-82
2022/04/28 07:45:25;;;;;;;;;;;23.50;84.40;;;;;;5069093;28;20026;-85
2022/04/28 07:47:52;;;;;;;;;;;23.70;85.10;;;;;;5047297;28;19935;-83
2022/04/28 07:50:23;;;;;;;;;;;23.80;89.80;;;;;;5062337;28;19921;-82
2022/04/28 07:52:51;;;;;;;;;;;24.10;88.40;;;;;;5045250;28;19935;-83
2022/04/28 07:55:18;;;;;;;;;;;24.40;88.70;;;;;;5046849;28;19972;-83
2022/04/28 07:57:50;;;;;;;;;;;24.50;86.70;;;;;;5051386;28;19908;-83
2022/04/28 08:00:26;;;;;;;;;;;25.30;88.00;;;;;;5055729;28;19909;-81
2022/04/28 08:02:55;;;;;;;;;;;25.40;80.00;;;;;;5046302;28;19940;-83
2022/04/28 08:05:32;;;;;;;;;;;25.20;84.10;;;;;;5059859;28;20019;-80
2022/04/28 08:08:00;;;;;;;;;;;25.70;84.20;;;;;;5039212;28;19921;-80
2022/04/28 08:10:26;;;;;;;;;;;26.10;83.40;;;;;;5042632;28;20264;-80
2022/04/28 08:12:53;;;;;;;;;;;26.40;81.90;;;;;;5057907;28;19909;-84
2022/04/28 08:15:42;;;;;;;;;;;26.30;81.10;;;;;;5072280;28;19983;-84
2022/04/28 08:18:10;;;;;;;;;;;26.80;83.00;;;;;;5061697;28;19924;-81
2022/04/28 08:20:39;;;;;;;;;;;27.40;83.00;;;;;;5065222;28;20023;-83
2022/04/28 08:23:06;;;;;;;;;;;27.60;79.10;;;;;;5057156;28;19972;-82
2022/04/28 08:25:35;;;;;;;;;;;27.40;78.70;;;;;;5050517;28;19921;-82
2022/04/28 08:28:02;;;;;;;;;;;26.70;79.00;;;;;;5035244;28;20035;-81
2022/04/28 08:30:30;;;;;;;;;;;26.80;81.20;;;;;;5033167;28;19928;-81
2022/04/28 08:32:59;;;;;;;;;;;27.00;79.20;;;;;;5050589;28;19925;-82
2022/04/28 08:35:26;;;;;;;;;;;26.90;74.20;;;;;;5045574;28;20372;-81
2022/04/28 08:37:53;;;;;;;;;;;26.20;74.60;;;;;;5047259;28;19983;-82
2022/04/28 08:40:20;;;;;;;;;;;26.00;76.50;;;;;;5057262;28;19931;-82
2022/04/28 08:42:49;;;;;;;;;;;26.10;76.80;;;;;;5046902;28;19925;-82
2022/04/28 08:45:19;;;;;;;;;;;25.90;77.20;;;;;;5062162;28;19924;-84
2022/04/28 08:48:07;;;;;;;;;;;25.50;76.30;;;;;;5059821;28;19939;-80
2022/04/28 08:51:04;;;;;;;;;;;25.00;75.90;;;;;;5053501;28;19921;-80
2022/04/28 08:53:31;;;;;;;;;;;25.00;77.80;;;;;;5052185;28;19921;-81
2022/04/28 08:55:57;;;;;;;;;;;25.00;77.80;;;;;;5041249;28;20051;-80
2022/04/28 08:58:25;;;;;;;;;;;25.20;79.40;;;;;;5063643;28;19982;-82
2022/04/28 09:00:53;;;;;;;;;;;25.60;77.60;;;;;;5059131;28;19931;-81
2022/04/28 09:03:27;;;;;;;;;;;25.70;79.40;;;;;;5058985;28;19959;-82
2022/04/28 09:05:58;;;;;;;;;;;25.50;76.20;;;;;;5056598;28;19925;-81
2022/04/28 09:08:46;;;;;;;;;;;25.00;77.60;;;;;;5050616;28;20021;-80
2022/04/28 09:11:32;;;;;;;;;;;24.30;76.20;;;;;;5044285;28;19948;-80
2022/04/28 09:14:20;;;;;;;;;;;23.60;77.30;;;;;;5050361;28;19931;-80
2022/04/28 09:16:48;;;;;;;;;;;23.30;78.90;;;;;;5044428;28;19943;-81
2022/04/28 09:19:22;;;;;;;;;;;23.60;80.80;;;;;;5062379;28;19936;-83
2022/04/28 09:21:50;;;;;;;;;;;24.00;77.60;;;;;;5047568;28;19944;-82
2022/04/28 09:24:17;;;;;;;;;;;23.80;75.90;;;;;;5057257;28;19996;-82
2022/04/28 09:26:45;;;;;;;;;;;23.80;77.70;;;;;;5042835;28;19925;-83
2022/04/28 09:29:13;;;;;;;;;;;23.50;77.40;;;;;;5044914;28;19928;-82
2022/04/28 09:31:40;;;;;;;;;;;23.70;79.50;;;;;;5058356;28;19921;-80
2022/04/28 09:34:47;;;;;;;;;;;24.00;80.30;;;;;;5045842;28;19925;-80
2022/04/28 09:37:40;;;;;;;;;;;24.30;79.50;;;;;;5053370;28;19947;-80
2022/04/28 09:42:54;;;;;;;;;;;24.40;78.10;;;;;;5048990;28;20186;-80
2022/04/28 09:45:29;;;;;;;;;;;24.00;76.90;;;;;;5049157;28;19976;-81
2022/04/28 09:48:01;;;;;;;;;;;23.10;75.10;;;;;;5048990;28;19928;-80
2022/04/28 09:50:31;;;;;;;;;;;21.20;74.10;;;;;;5042872;28;19924;-80
2022/04/28 09:53:15;;;;;;;;;;;20.90;75.50;;;;;;5047886;28;19931;-79
2022/04/28 09:55:57;;;;;;;;;;;19.10;75.20;;;;;;5049187;28;19991;-79
2022/04/28 09:58:30;;;;;;;;;;;18.60;76.10;;;;;;5021496;28;20066;-80
2022/04/28 10:01:00;;;;;;;;;;;18.40;76.50;;;;;;5025623;28;19934;-80
2022/04/28 10:03:30;;;;;;;;;;;18.20;77.80;;;;;;5046910;28;20390;-81
2022/04/28 10:05:58;;;;;;;;;;;18.00;79.30;;;;;;5048166;28;19921;-79
2022/04/28 10:08:55;;;;;;;;;;;18.00;80.80;;;;;;5051302;28;20421;-79
2022/04/28 10:11:23;;;;;;;;;;;18.10;81.30;;;;;;5042758;28;20297;-80
2022/04/28 10:13:51;;;;;;;;;;;18.10;80.80;;;;;;5042542;28;19929;-80
2022/04/28 10:16:21;;;;;;;;;;;18.00;81.90;;;;;;5041761;28;20261;-79
2022/04/28 10:18:50;;;;;;;;;;;17.70;81.50;;;;;;5041535;28;19947;-79
2022/04/28 10:21:23;;;;;;;;;;;17.70;82.80;;;;;;5021856;28;19951;-79
2022/04/28 10:32:44;;;;;;;;;;;17.90;82.80;;;;;;5047883;28;19921;-79
2022/04/28 10:35:11;;;;;;;;;;;18.00;82.50;;;;;;5032937;28;19939;-79
2022/04/28 10:37:45;;;;;;;;;;;18.20;83.40;;;;;;5030332;28;19920;-79
2022/04/28 10:40:13;;;;;;;;;;;18.30;82.80;;;;;;5044983;28;19924;-79
2022/04/28 10:42:57;;;;;;;;;;;18.30;83.40;;;;;;5046274;28;19932;-79
2022/04/28 10:45:25;;;;;;;;;;;18.40;83.70;;;;;;5034921;28;20024;-79
2022/04/28 10:48:14;;;;;;;;;;;18.40;83.30;;;;;;5038583;28;19937;-79
2022/04/28 10:50:41;;;;;;;;;;;18.30;82.20;;;;;;5052450;28;19954;-80
2022/04/28 10:53:11;;;;;;;;;;;18.40;83.70;;;;;;5085321;28;19920;-80
2022/04/28 10:55:40;;;;;;;;;;;18.40;83.40;;;;;;5084312;28;19920;-79
2022/04/28 10:58:20;;;;;;;;;;;18.60;83.20;;;;;;5061869;28;19931;-79
2022/04/28 11:00:51;;;;;;;;;;;18.70;83.50;;;;;;5065932;28;19931;-80
2022/04/28 11:03:42;;;;;;;;;;;18.80;83.20;;;;;;5069236;28;19924;-79
2022/04/28 11:06:11;;;;;;;;;;;18.90;82.80;;;;;;5069696;28;19925;-79
2022/04/28 11:08:43;;;;;;;;;;;18.90;83.70;;;;;;5068162;28;19928;-79
2022/04/28 11:11:13;;;;;;;;;;;19.00;82.70;;;;;;5059315;28;19927;-80
2022/04/28 11:13:43;;;;;;;;;;;18.90;83.00;;;;;;5058533;28;20376;-79
2022/04/28 11:16:10;;;;;;;;;;;18.70;82.70;;;;;;5064557;28;20462;-79
2022/04/28 11:18:37;;;;;;;;;;;18.70;83.10;;;;;;5069230;28;19924;-79
2022/04/28 11:21:04;;;;;;;;;;;18.70;82.90;;;;;;5059293;28;19927;-79
2022/04/28 11:23:35;;;;;;;;;;;18.80;83.40;;;;;;5059760;28;19924;-79
2022/04/28 11:26:03;;;;;;;;;;;18.90;83.80;;;;;;5060569;28;19947;-79
2022/04/28 11:28:31;;;;;;;;;;;19.00;83.80;;;;;;5062609;28;20007;-79
2022/04/28 11:30:58;;;;;;;;;;;19.10;83.00;;;;;;5067404;28;19952;-79
2022/04/28 11:33:25;;;;;;;;;;;17.60;82.40;;;;;;5066624;28;19925;-80
2022/04/28 11:35:52;;;;;;;;;;;19.20;82.30;;;;;;5071136;28;19920;-79
2022/04/28 11:38:25;;;;;;;;;;;19.20;82.90;;;;;;5070884;28;19920;-80
2022/04/28 11:41:03;;;;;;;;;;;20.50;84.30;;;;;;5088068;28;19924;-80
2022/04/28 11:43:31;;;;;;;;;;;19.40;83.60;;;;;;5067365;28;19955;-81
2022/04/28 11:45:59;;;;;;;;;;;19.50;83.60;;;;;;5070578;28;19926;-80
2022/04/28 11:48:27;;;;;;;;;;;19.70;83.80;;;;;;5071181;28;20381;-80
2022/04/28 11:50:53;;;;;;;;;;;19.80;83.60;;;;;;5065755;28;19947;-80
2022/04/28 11:53:20;;;;;;;;;;;19.80;83.70;;;;;;5068610;28;20487;-80
2022/04/28 11:55:48;;;;;;;;;;;20.00;83.80;;;;;;5080079;28;19928;-79
2022/04/28 11:58:16;;;;;;;;;;;20.20;85.00;;;;;;5072027;28;19920;-80
2022/04/28 12:00:44;;;;;;;;;;;20.30;82.50;;;;;;5064604;28;19975;-80
2022/04/28 12:03:22;;;;;;;;;;;20.30;83.10;;;;;;5071170;28;20393;-80
2022/04/28 12:05:51;;;;;;;;;;;20.40;83.20;;;;;;5072962;28;19928;-79
2022/04/28 12:08:20;;;;;;;;;;;20.50;82.00;;;;;;5081075;28;19931;-83
2022/04/28 12:16:16;;;;;;;;;;;20.70;82.00;;;;;;5078714;28;19930;-81
2022/04/28 12:21:32;;;;;;;;;;;20.20;80.80;;;;;;5072443;28;19924;-80
2022/04/28 12:24:00;;;;;;;;;;;20.20;81.40;;;;;;5066001;28;19925;-82
2022/04/28 12:26:27;;;;;;;;;;;20.40;81.00;;;;;;5070505;28;19924;-80
2022/04/28 12:28:55;;;;;;;;;;;20.50;80.40;;;;;;5072362;28;19920;-81
2022/04/28 12:31:27;;;;;;;;;;;20.60;81.80;;;;;;5072138;28;20275;-80
2022/04/28 12:33:54;;;;;;;;;;;20.70;82.10;;;;;;5070386;28;19920;-80
2022/04/28 12:36:21;;;;;;;;;;;20.90;82.30;;;;;;5056236;28;19931;-80
2022/04/28 12:38:49;;;;;;;;;;;20.90;80.90;;;;;;5070773;28;19928;-81
2022/04/28 12:41:17;;;;;;;;;;;20.80;80.70;;;;;;5067452;28;19974;-82
2022/04/28 12:43:48;;;;;;;;;;;21.00;80.70;;;;;;5055099;28;19928;-80
2022/04/28 12:46:19;;;;;;;;;;;21.00;80.30;;;;;;5059288;28;19942;-79
2022/04/28 12:48:52;;;;;;;;;;;21.00;80.90;;;;;;5061390;28;20423;-82
2022/04/28 12:51:20;;;;;;;;;;;21.10;80.30;;;;;;5074942;28;19978;-80
2022/04/28 12:53:48;;;;;;;;;;;21.20;80.60;;;;;;5076021;28;19925;-81
2022/04/28 12:56:16;;;;;;;;;;;21.50;79.40;;;;;;5081911;28;19924;-83
2022/04/28 12:58:43;;;;;;;;;;;21.40;78.90;;;;;;5081216;28;19943;-83
2022/04/28 13:01:11;;;;;;;;;;;21.30;78.70;;;;;;5070099;28;19925;-83
2022/04/28 13:03:40;;;;;;;;;;;21.20;79.30;;;;;;5086612;28;19958;-82
2022/04/28 13:06:08;;;;;;;;;;;21.30;80.30;;;;;;5086698;28;19909;-87
2022/04/28 13:08:34;;;;;;;;;;;21.10;76.70;;;;;;5069771;28;19928;-84
2022/04/28 13:11:01;;;;;;;;;;;21.00;75.60;;;;;;5084829;28;19947;-83
2022/04/28 13:13:28;;;;;;;;;;;20.00;75.70;;;;;;5075621;28;20266;-85
2022/04/28 13:15:55;;;;;;;;;;;20.80;77.70;;;;;;5072584;28;19924;-79
2022/04/28 13:18:22;;;;;;;;;;;20.90;77.80;;;;;;5057231;28;19936;-79
2022/04/28 13:20:50;;;;;;;;;;;20.70;76.80;;;;;;5059281;28;19954;-79
2022/04/28 13:23:17;;;;;;;;;;;20.70;77.40;;;;;;5072401;28;19927;-79
2022/04/28 13:25:43;;;;;;;;;;;20.90;77.80;;;;;;5088733;28;19908;-85
2022/04/28 13:28:10;;;;;;;;;;;21.10;78.20;;;;;;5085021;28;19920;-80
2022/04/28 13:30:38;;;;;;;;;;;21.20;77.10;;;;;;5067416;28;19951;-79
2022/04/28 13:33:04;;;;;;;;;;;21.20;77.10;;;;;;5067987;28;19924;-79
2022/04/28 13:35:31;;;;;;;;;;;21.20;77.50;;;;;;5068061;28;19932;-79
2022/04/28 13:37:59;;;;;;;;;;;21.20;77.20;;;;;;5069127;28;19928;-79
2022/04/28 13:40:26;;;;;;;;;;;21.20;77.90;;;;;;5067883;28;19948;-79
2022/04/28 13:42:52;;;;;;;;;;;21.20;78.40;;;;;;5076293;28;19925;-79
2022/04/28 13:45:19;;;;;;;;;;;21.20;78.30;;;;;;5059222;28;20309;-79
2022/04/28 13:47:46;;;;;;;;;;;21.30;76.60;;;;;;5069713;28;20030;-79
2022/04/28 13:50:13;;;;;;;;;;;21.50;78.70;;;;;;5065405;28;20501;-79
2022/04/28 13:52:39;;;;;;;;;;;21.70;77.80;;;;;;5068778;28;19924;-79
2022/04/28 13:55:08;;;;;;;;;;;21.80;77.30;;;;;;5065124;28;19924;-79
2022/04/28 13:57:35;;;;;;;;;;;21.80;76.70;;;;;;5067729;28;19947;-80
2022/04/28 14:00:02;;;;;;;;;;;21.80;76.50;;;;;;5068342;28;19928;-79
2022/04/28 14:02:39;;;;;;;;;;;21.90;76.70;;;;;;5085321;28;19920;-80
2022/04/28 14:05:06;;;;;;;;;;;21.90;76.90;;;;;;5074787;28;19924;-79
2022/04/28 14:07:36;;;;;;;;;;;21.90;76.10;;;;;;5067112;28;19925;-80
2022/04/28 14:10:02;;;;;;;;;;;21.40;75.50;;;;;;5042527;28;20007;-79
2022/04/28 14:12:30;;;;;;;;;;;21.40;76.00;;;;;;5040442;28;19928;-79
2022/04/28 14:14:57;;;;;;;;;;;21.40;76.60;;;;;;5060010;28;19920;-79
2022/04/28 14:17:24;;;;;;;;;;;21.60;76.80;;;;;;5053690;28;19936;-79
2022/04/28 14:19:51;;;;;;;;;;;22.00;77.00;;;;;;5059250;28;20054;-80
2022/04/28 14:22:21;;;;;;;;;;;22.00;77.40;;;;;;5067217;28;19924;-80
2022/04/28 14:24:48;;;;;;;;;;;22.10;76.20;;;;;;5067634;28;19928;-80
2022/04/28 14:27:15;;;;;;;;;;;22.00;75.90;;;;;;5065291;28;19985;-79
2022/04/28 14:29:43;;;;;;;;;;;21.60;75.20;;;;;;5058444;28;20017;-79
2022/04/28 14:32:10;;;;;;;;;;;21.60;75.70;;;;;;5034070;28;19938;-79
2022/04/28 14:34:36;;;;;;;;;;;21.50;74.70;;;;;;5057549;28;19928;-79
2022/04/28 14:37:06;;;;;;;;;;;21.30;74.30;;;;;;5060218;28;19928;-80
2022/04/28 14:39:33;;;;;;;;;;;21.40;75.70;;;;;;5071912;28;19955;-81
2022/04/28 14:41:59;;;;;;;;;;;21.40;75.10;;;;;;5049338;28;20997;-83
2022/04/28 14:44:26;;;;;;;;;;;21.50;75.00;;;;;;5070049;28;19928;-81
2022/04/28 14:46:54;;;;;;;;;;;21.40;74.60;;;;;;5060429;28;19931;-82
2022/04/28 14:52:21;;;;;;;;;;;21.30;74.20;;;;;;5077576;28;19928;-79
2022/04/28 14:54:48;;;;;;;;;;;21.20;74.30;;;;;;5066341;28;19928;-80
2022/04/28 14:57:15;;;;;;;;;;;21.30;74.40;;;;;;5068698;28;19928;-80
2022/04/28 14:59:41;;;;;;;;;;;21.20;73.30;;;;;;5068202;28;19929;-79
2022/04/28 15:02:11;;;;;;;;;;;21.20;73.80;;;;;;5050142;28;19936;-79
2022/04/28 15:04:38;;;;;;;;;;;21.30;74.90;;;;;;5076516;28;20267;-79
2022/04/28 15:07:05;;;;;;;;;;;21.40;74.60;;;;;;5070967;28;19924;-79
2022/04/28 15:09:32;;;;;;;;;;;22.80;76.00;;;;;;5068876;28;19921;-79
2022/04/28 15:11:59;;;;;;;;;;;21.40;74.70;;;;;;5068322;28;19928;-79
2022/04/28 15:14:26;;;;;;;;;;;21.30;72.50;;;;;;5063011;28;20023;-81
2022/04/28 15:16:52;;;;;;;;;;;21.10;73.20;;;;;;5073622;28;20158;-80
2022/04/28 15:19:20;;;;;;;;;;;21.00;73.70;;;;;;5071461;28;19935;-84
2022/04/28 15:21:47;;;;;;;;;;;20.80;72.80;;;;;;5062316;28;19951;-83
2022/04/28 15:24:14;;;;;;;;;;;20.80;74.30;;;;;;5082520;28;19929;-82
2022/04/28 15:26:41;;;;;;;;;;;20.90;74.50;;;;;;5084960;28;19956;-82
2022/04/28 15:29:07;;;;;;;;;;;21.00;74.50;;;;;;5081158;28;19925;-84
2022/04/28 15:31:35;;;;;;;;;;;21.20;74.00;;;;;;5078470;28;19923;-82
2022/04/28 15:34:02;;;;;;;;;;;21.10;73.40;;;;;;5078274;28;19912;-83